Time;durP1;ratioP1;P1;durP2;ratioP2;P2;SDS_P1;SDS_P2;PMS_P1;PMS_P2;Temp;Humidity;BMP_temperature;BMP_pressure;BME280_temperature;BME280_humidity;BME280_pressure;Samples;Min_cycle;Max_cycle;Signal;HPM_P1;HPM_P2
2020/12/22 00:00:00;;;;;;;7.05;5.05;;;;;;;;;;4996559;28;20125;-61
2020/12/22 00:02:25;;;;;;;6.43;5.57;;;;;;;;;;4997711;28;20105;-62
2020/12/22 00:04:51;;;;;;;7.00;4.72;;;;;;;;;;4996021;28;20030;-61
2020/12/22 00:07:16;;;;;;;5.15;4.45;;;;;;;;;;4998495;28;20042;-61
2020/12/22 00:09:41;;;;;;;6.63;5.13;;;;;;;;;;4995843;28;20030;-62
2020/12/22 00:12:16;;;;;;;7.78;5.18;;;;;;;;;;4997597;28;20030;-62
2020/12/22 00:14:42;;;;;;;5.43;4.35;;;;;;;;;;4995700;28;20031;-61
2020/12/22 00:17:07;;;;;;;6.68;3.95;;;;;;;;;;4995691;28;20046;-62
2020/12/22 00:19:33;;;;;;;5.75;3.95;;;;;;;;;;4996432;28;20060;-61
2020/12/22 00:21:58;;;;;;;7.47;4.35;;;;;;;;;;4996309;28;20026;-61
2020/12/22 00:24:23;;;;;;;5.47;4.22;;;;;;;;;;4996785;28;20049;-62
2020/12/22 00:26:49;;;;;;;6.60;4.35;;;;;;;;;;4994824;28;20533;-62
2020/12/22 00:29:15;;;;;;;5.28;3.88;;;;;;;;;;4997549;28;20076;-61
2020/12/22 00:31:40;;;;;;;5.72;3.50;;;;;;;;;;4994262;28;20037;-62
2020/12/22 00:34:05;;;;;;;4.68;3.60;;;;;;;;;;4993824;28;20080;-61
2020/12/22 00:36:30;;;;;;;5.65;3.67;;;;;;;;;;4995951;28;20044;-62
2020/12/22 00:38:56;;;;;;;6.70;3.63;;;;;;;;;;4995950;28;20018;-61
2020/12/22 00:41:21;;;;;;;4.20;3.17;;;;;;;;;;4996744;28;20080;-61
2020/12/22 00:43:46;;;;;;;5.55;3.95;;;;;;;;;;4991541;28;20022;-62
2020/12/22 00:46:15;;;;;;;4.18;3.03;;;;;;;;;;4996894;28;20069;-62
2020/12/22 00:48:44;;;;;;;4.93;3.47;;;;;;;;;;4994085;28;20043;-62
2020/12/22 00:51:13;;;;;;;4.75;3.10;;;;;;;;;;4995850;28;20105;-61
2020/12/22 00:53:41;;;;;;;4.88;3.15;;;;;;;;;;4995531;28;20622;-62
2020/12/22 00:56:10;;;;;;;4.50;3.03;;;;;;;;;;4996644;28;20045;-61
2020/12/22 00:58:35;;;;;;;4.70;2.90;;;;;;;;;;4994330;28;20034;-62
2020/12/22 01:01:00;;;;;;;4.47;3.03;;;;;;;;;;4993710;28;20030;-61
2020/12/22 01:03:26;;;;;;;5.72;2.50;;;;;;;;;;4996526;28;20038;-61
2020/12/22 01:05:51;;;;;;;3.50;2.17;;;;;;;;;;4995129;28;20030;-62
2020/12/22 01:08:16;;;;;;;4.95;2.47;;;;;;;;;;4992920;28;20100;-61
2020/12/22 01:10:42;;;;;;;5.38;2.65;;;;;;;;;;4994985;28;20054;-61
2020/12/22 01:13:07;;;;;;;4.07;2.38;;;;;;;;;;4996324;28;20049;-61
2020/12/22 01:15:32;;;;;;;4.72;2.30;;;;;;;;;;4994809;28;20096;-61
2020/12/22 01:17:57;;;;;;;3.47;1.85;;;;;;;;;;4994123;28;20084;-61
2020/12/22 01:20:23;;;;;;;3.70;2.00;;;;;;;;;;4995099;28;20022;-61
2020/12/22 01:22:48;;;;;;;3.42;2.08;;;;;;;;;;4994340;28;20030;-61
2020/12/22 01:25:13;;;;;;;6.85;2.40;;;;;;;;;;4996857;28;20771;-62
2020/12/22 01:27:39;;;;;;;3.75;2.30;;;;;;;;;;4995029;28;20040;-61
2020/12/22 01:30:04;;;;;;;3.38;2.30;;;;;;;;;;4994078;28;20023;-61
2020/12/22 01:32:30;;;;;;;3.08;2.35;;;;;;;;;;4994722;28;20042;-61
2020/12/22 01:34:55;;;;;;;4.55;2.58;;;;;;;;;;4994629;28;20038;-61
2020/12/22 01:37:21;;;;;;;4.68;3.03;;;;;;;;;;4996920;28;20038;-61
2020/12/22 01:39:46;;;;;;;8.27;3.08;;;;;;;;;;4994995;28;20110;-61
2020/12/22 01:42:11;;;;;;;4.13;2.50;;;;;;;;;;4996864;28;20377;-61
2020/12/22 01:44:37;;;;;;;3.78;3.00;;;;;;;;;;4995216;28;20045;-61
2020/12/22 01:47:03;;;;;;;3.75;2.92;;;;;;;;;;4998206;28;20124;-60
2020/12/22 01:49:28;;;;;;;4.32;2.88;;;;;;;;;;4999798;28;20362;-62
2020/12/22 01:51:56;;;;;;;3.97;2.90;;;;;;;;;;4998811;28;20462;-61
2020/12/22 01:54:22;;;;;;;4.85;3.03;;;;;;;;;;4999297;28;20068;-61
2020/12/22 01:56:48;;;;;;;4.57;2.60;;;;;;;;;;4998751;28;20404;-61
2020/12/22 01:59:14;;;;;;;5.65;3.58;;;;;;;;;;5000802;28;20037;-61
2020/12/22 02:01:39;;;;;;;4.20;3.00;;;;;;;;;;4998159;28;20046;-61
2020/12/22 02:04:06;;;;;;;4.22;2.80;;;;;;;;;;4999120;28;20084;-61
2020/12/22 02:06:33;;;;;;;6.10;3.28;;;;;;;;;;4998113;28;20041;-61
2020/12/22 02:08:59;;;;;;;4.88;3.28;;;;;;;;;;4992793;28;20030;-60
2020/12/22 02:11:29;;;;;;;5.65;3.13;;;;;;;;;;4998983;28;20030;-61
2020/12/22 02:13:56;;;;;;;4.45;3.20;;;;;;;;;;4997826;28;20078;-61
2020/12/22 02:16:21;;;;;;;4.10;3.22;;;;;;;;;;4999095;28;20038;-61
2020/12/22 02:18:49;;;;;;;5.07;3.75;;;;;;;;;;4996234;28;20487;-61
2020/12/22 02:21:14;;;;;;;5.75;3.28;;;;;;;;;;5000347;28;20063;-61
2020/12/22 02:23:40;;;;;;;6.25;3.30;;;;;;;;;;4997930;28;20669;-61
2020/12/22 02:26:05;;;;;;;5.35;3.25;;;;;;;;;;4998592;28;20373;-61
2020/12/22 02:28:32;;;;;;;4.95;3.13;;;;;;;;;;4998713;28;20091;-61
2020/12/22 02:30:59;;;;;;;4.53;3.10;;;;;;;;;;4998556;28;20529;-61
2020/12/22 02:33:25;;;;;;;4.15;2.60;;;;;;;;;;4998296;28;20037;-61
2020/12/22 02:35:50;;;;;;;3.95;2.72;;;;;;;;;;4997568;28;20042;-61
2020/12/22 02:38:17;;;;;;;4.40;2.60;;;;;;;;;;4999649;28;20469;-61
2020/12/22 02:40:43;;;;;;;6.43;3.05;;;;;;;;;;4996235;28;20605;-60
2020/12/22 02:43:11;;;;;;;3.65;2.38;;;;;;;;;;4998903;28;20167;-61
2020/12/22 02:45:41;;;;;;;4.93;2.72;;;;;;;;;;4998391;28;20028;-61
2020/12/22 02:48:07;;;;;;;4.80;3.13;;;;;;;;;;4999060;28;20458;-61
2020/12/22 02:50:33;;;;;;;3.97;2.47;;;;;;;;;;4997681;28;20590;-61
2020/12/22 02:52:58;;;;;;;3.53;2.20;;;;;;;;;;4995949;28;20034;-61
2020/12/22 02:55:24;;;;;;;3.83;2.17;;;;;;;;;;4997617;28;20140;-61
2020/12/22 02:57:49;;;;;;;3.85;2.30;;;;;;;;;;4996708;28;20097;-61
2020/12/22 03:00:15;;;;;;;4.03;1.60;;;;;;;;;;4999049;28;20084;-61
2020/12/22 03:02:40;;;;;;;3.10;1.30;;;;;;;;;;4997060;28;20042;-60
2020/12/22 03:05:05;;;;;;;2.50;1.52;;;;;;;;;;4995769;28;20054;-60
2020/12/22 03:07:31;;;;;;;2.50;1.10;;;;;;;;;;4997951;28;20473;-61
2020/12/22 03:09:56;;;;;;;4.82;1.20;;;;;;;;;;4996975;28;20369;-61
2020/12/22 03:12:21;;;;;;;4.45;1.35;;;;;;;;;;4998149;28;20088;-60
2020/12/22 03:14:47;;;;;;;1.67;1.00;;;;;;;;;;4993218;28;20050;-60
2020/12/22 03:17:12;;;;;;;1.58;1.05;;;;;;;;;;4996891;28;20360;-61
2020/12/22 03:19:38;;;;;;;2.97;1.33;;;;;;;;;;4999585;28;20056;-60
2020/12/22 03:22:07;;;;;;;3.17;1.10;;;;;;;;;;4998194;28;20058;-61
2020/12/22 03:24:32;;;;;;;1.73;1.10;;;;;;;;;;4997427;28;20037;-60
2020/12/22 03:26:58;;;;;;;2.95;1.50;;;;;;;;;;4994676;28;20060;-61
2020/12/22 03:29:23;;;;;;;4.13;1.42;;;;;;;;;;4998449;28;20372;-61
2020/12/22 03:31:49;;;;;;;3.05;1.42;;;;;;;;;;4996194;28;20161;-61
2020/12/22 03:34:14;;;;;;;2.20;1.20;;;;;;;;;;4995842;28;20523;-60
2020/12/22 03:36:39;;;;;;;1.95;1.02;;;;;;;;;;4996779;28;20093;-61
2020/12/22 03:39:05;;;;;;;2.60;1.05;;;;;;;;;;4997310;28;20033;-60
2020/12/22 03:41:30;;;;;;;2.50;1.00;;;;;;;;;;4995322;28;20025;-60
2020/12/22 03:43:56;;;;;;;3.72;0.95;;;;;;;;;;4994380;28;20049;-60
2020/12/22 03:46:23;;;;;;;1.35;0.82;;;;;;;;;;4995917;28;20373;-60
2020/12/22 03:48:48;;;;;;;2.53;1.20;;;;;;;;;;4995002;28;20399;-60
2020/12/22 03:51:13;;;;;;;2.85;1.27;;;;;;;;;;4995443;28;20072;-60
2020/12/22 03:53:39;;;;;;;2.05;1.25;;;;;;;;;;4995824;28;20443;-60
2020/12/22 03:56:06;;;;;;;2.30;1.17;;;;;;;;;;4997577;28;20128;-60
2020/12/22 03:58:31;;;;;;;1.63;1.00;;;;;;;;;;4997541;28;20065;-60
2020/12/22 04:00:57;;;;;;;2.20;1.17;;;;;;;;;;4996529;28;20088;-60
2020/12/22 04:03:22;;;;;;;2.42;1.25;;;;;;;;;;4998082;28;20125;-60
2020/12/22 04:05:47;;;;;;;4.90;1.60;;;;;;;;;;4996434;28;20465;-60
2020/12/22 04:08:13;;;;;;;2.15;1.17;;;;;;;;;;4996898;28;20029;-60
2020/12/22 04:10:38;;;;;;;2.25;1.20;;;;;;;;;;4996131;28;20030;-60
2020/12/22 04:13:03;;;;;;;2.63;1.15;;;;;;;;;;4995308;28;20409;-60
2020/12/22 04:15:29;;;;;;;1.75;0.90;;;;;;;;;;4997081;28;20519;-60
2020/12/22 04:17:54;;;;;;;1.60;0.90;;;;;;;;;;4996242;28;20022;-60
2020/12/22 04:20:19;;;;;;;2.30;1.10;;;;;;;;;;4993443;28;20049;-61
2020/12/22 04:22:45;;;;;;;3.22;1.00;;;;;;;;;;4992735;28;20525;-61
2020/12/22 04:25:10;;;;;;;2.05;1.15;;;;;;;;;;5010396;28;20092;-61
2020/12/22 04:27:35;;;;;;;2.10;1.00;;;;;;;;;;4992966;28;20062;-61
2020/12/22 04:30:00;;;;;;;1.27;0.80;;;;;;;;;;4993391;28;20121;-61
2020/12/22 04:32:26;;;;;;;2.28;1.23;;;;;;;;;;4993589;28;20038;-61
2020/12/22 04:34:54;;;;;;;2.58;1.02;;;;;;;;;;4993118;28;20050;-61
2020/12/22 04:37:19;;;;;;;3.13;1.25;;;;;;;;;;4990639;28;20042;-61
2020/12/22 04:39:44;;;;;;;2.38;1.00;;;;;;;;;;4994203;28;20460;-61
2020/12/22 04:42:12;;;;;;;1.40;0.85;;;;;;;;;;4993805;28;20437;-61
2020/12/22 04:44:38;;;;;;;1.33;0.82;;;;;;;;;;4992866;28;20072;-61
2020/12/22 04:47:04;;;;;;;1.30;0.82;;;;;;;;;;4992225;28;20572;-61
2020/12/22 04:49:31;;;;;;;1.92;0.90;;;;;;;;;;4993475;28;20365;-61
2020/12/22 04:51:56;;;;;;;1.33;0.80;;;;;;;;;;4994418;28;20038;-62
2020/12/22 04:54:22;;;;;;;2.13;1.00;;;;;;;;;;4993739;28;20045;-61
2020/12/22 04:56:49;;;;;;;1.63;0.75;;;;;;;;;;4987553;28;20530;-60
2020/12/22 04:59:15;;;;;;;2.20;0.82;;;;;;;;;;4993796;28;20035;-61
2020/12/22 05:01:41;;;;;;;2.13;1.00;;;;;;;;;;4991592;28;20062;-61
2020/12/22 05:04:10;;;;;;;1.63;0.88;;;;;;;;;;4990494;28;20504;-62
2020/12/22 05:06:35;;;;;;;1.55;0.80;;;;;;;;;;4991728;28;20107;-61
2020/12/22 05:09:01;;;;;;;4.20;1.60;;;;;;;;;;4991432;28;20034;-61
2020/12/22 05:11:27;;;;;;;2.70;1.20;;;;;;;;;;4993571;28;20100;-61
2020/12/22 05:13:53;;;;;;;3.60;2.10;;;;;;;;;;4991243;28;20049;-62
2020/12/22 05:16:25;;;;;;;2.65;1.33;;;;;;;;;;4994039;28;20468;-61
2020/12/22 05:18:51;;;;;;;2.58;1.30;;;;;;;;;;4990388;28;20416;-61
2020/12/22 05:21:17;;;;;;;4.00;2.58;;;;;;;;;;4994770;28;20109;-61
2020/12/22 05:23:43;;;;;;;5.22;1.33;;;;;;;;;;4992467;28;20027;-61
2020/12/22 05:26:08;;;;;;;1.30;0.80;;;;;;;;;;4992403;28;20367;-61
2020/12/22 05:28:34;;;;;;;2.05;0.98;;;;;;;;;;4993103;28;20125;-61
2020/12/22 05:30:59;;;;;;;1.73;0.82;;;;;;;;;;4994610;28;20573;-62
2020/12/22 05:33:25;;;;;;;0.93;0.52;;;;;;;;;;4992678;28;20056;-62
2020/12/22 05:35:50;;;;;;;1.85;0.80;;;;;;;;;;4993591;28;20069;-61
2020/12/22 05:38:19;;;;;;;1.48;0.70;;;;;;;;;;4993974;28;20070;-61
2020/12/22 05:40:45;;;;;;;2.60;0.95;;;;;;;;;;4992611;28;20034;-61
2020/12/22 05:43:10;;;;;;;0.90;0.57;;;;;;;;;;4995099;28;20353;-61
2020/12/22 05:45:43;;;;;;;1.30;0.68;;;;;;;;;;4990309;28;20042;-61
2020/12/22 05:48:14;;;;;;;5.53;2.72;;;;;;;;;;4991952;28;20046;-62
2020/12/22 05:50:40;;;;;;;1.45;0.77;;;;;;;;;;4990982;28;20495;-61
2020/12/22 05:53:10;;;;;;;1.38;0.60;;;;;;;;;;4992887;28;20046;-61
2020/12/22 05:55:35;;;;;;;0.90;0.57;;;;;;;;;;4990179;28;20123;-61
2020/12/22 05:58:11;;;;;;;0.95;0.52;;;;;;;;;;4990713;28;20485;-60
2020/12/22 06:00:41;;;;;;;1.55;0.77;;;;;;;;;;4990409;28;20042;-61
2020/12/22 06:03:09;;;;;;;1.80;0.70;;;;;;;;;;4991201;28;20457;-61
2020/12/22 06:05:39;;;;;;;1.05;0.60;;;;;;;;;;4993701;28;20037;-61
2020/12/22 06:08:05;;;;;;;1.98;0.70;;;;;;;;;;4993901;28;20069;-61
2020/12/22 06:10:31;;;;;;;1.77;0.70;;;;;;;;;;4992531;28;20045;-62
2020/12/22 06:12:57;;;;;;;0.40;0.40;;;;;;;;;;4991873;28;20373;-61
2020/12/22 06:15:24;;;;;;;3.45;0.80;;;;;;;;;;4992123;28;20031;-62
2020/12/22 06:17:50;;;;;;;1.45;0.60;;;;;;;;;;4990262;28;20041;-61
2020/12/22 06:20:20;;;;;;;0.85;0.50;;;;;;;;;;4992471;28;20034;-62
2020/12/22 06:22:45;;;;;;;1.45;0.90;;;;;;;;;;4989043;28;20038;-62
2020/12/22 06:25:11;;;;;;;3.13;1.60;;;;;;;;;;4992613;28;20053;-62
2020/12/22 06:27:36;;;;;;;3.05;0.90;;;;;;;;;;4992052;28;20049;-62
2020/12/22 06:30:02;;;;;;;1.88;0.93;;;;;;;;;;4992269;28;20030;-61
2020/12/22 06:32:29;;;;;;;0.77;0.55;;;;;;;;;;5011314;28;20099;-61
2020/12/22 06:35:15;;;;;;;1.10;0.63;;;;;;;;;;4996645;28;20484;-62
2020/12/22 06:37:44;;;;;;;1.48;0.70;;;;;;;;;;4996642;28;20058;-62
2020/12/22 06:40:10;;;;;;;5.57;0.60;;;;;;;;;;4993845;28;20084;-61
2020/12/22 06:42:46;;;;;;;1.02;0.60;;;;;;;;;;4993102;28;20042;-61
2020/12/22 06:45:25;;;;;;;0.80;0.55;;;;;;;;;;4991641;28;20045;-62
2020/12/22 06:47:52;;;;;;;2.33;0.60;;;;;;;;;;4992021;28;20026;-62
2020/12/22 06:50:41;;;;;;;1.30;0.70;;;;;;;;;;4995956;28;20107;-61
2020/12/22 06:53:29;;;;;;;1.10;0.60;;;;;;;;;;4987348;28;20066;-61
2020/12/22 06:55:54;;;;;;;1.02;0.60;;;;;;;;;;4996032;28;20121;-62
2020/12/22 06:58:55;;;;;;;1.27;0.70;;;;;;;;;;4996346;28;20700;-62
2020/12/22 07:01:26;;;;;;;1.20;0.60;;;;;;;;;;4972196;28;20108;-62
2020/12/22 07:03:53;;;;;;;1.30;0.65;;;;;;;;;;4990827;28;20517;-62
2020/12/22 07:06:52;;;;;;;1.50;0.82;;;;;;;;;;4996051;28;20049;-62
2020/12/22 07:09:35;;;;;;;1.00;0.60;;;;;;;;;;4995925;28;20065;-62
2020/12/22 07:12:09;;;;;;;1.23;0.55;;;;;;;;;;4993796;28;20042;-62
2020/12/22 07:14:38;;;;;;;2.80;0.60;;;;;;;;;;4994365;28;20037;-61
2020/12/22 07:17:04;;;;;;;1.52;0.70;;;;;;;;;;4994011;28;20026;-62
2020/12/22 07:19:31;;;;;;;1.58;0.90;;;;;;;;;;4994686;28;20361;-62
2020/12/22 07:22:04;;;;;;;2.30;0.77;;;;;;;;;;4994543;28;20117;-62
2020/12/22 07:24:35;;;;;;;1.23;0.70;;;;;;;;;;4998164;28;20034;-62
2020/12/22 07:27:05;;;;;;;2.90;0.90;;;;;;;;;;4992253;28;20077;-62
2020/12/22 07:29:30;;;;;;;1.25;0.68;;;;;;;;;;4991990;28;20299;-61
2020/12/22 07:31:56;;;;;;;1.48;0.60;;;;;;;;;;4992242;28;20049;-62
2020/12/22 07:34:21;;;;;;;1.02;0.63;;;;;;;;;;4992670;28;20469;-62
2020/12/22 07:36:47;;;;;;;0.85;0.60;;;;;;;;;;4993373;28;20116;-62
2020/12/22 07:39:17;;;;;;;0.60;0.50;;;;;;;;;;4997626;28;20485;-61
2020/12/22 07:41:43;;;;;;;1.02;0.65;;;;;;;;;;4994557;28;20072;-61
2020/12/22 07:44:15;;;;;;;1.45;0.80;;;;;;;;;;4994039;28;20041;-61
2020/12/22 07:46:42;;;;;;;3.30;0.82;;;;;;;;;;4993861;28;20399;-61
2020/12/22 07:49:09;;;;;;;0.63;0.55;;;;;;;;;;4996097;28;20073;-61
2020/12/22 07:51:35;;;;;;;0.80;0.60;;;;;;;;;;4994588;28;20034;-61
2020/12/22 07:54:05;;;;;;;0.80;0.52;;;;;;;;;;4988796;28;20058;-61
2020/12/22 07:56:32;;;;;;;1.58;0.70;;;;;;;;;;4993486;28;20057;-61
2020/12/22 07:59:01;;;;;;;1.13;0.60;;;;;;;;;;4993070;28;20026;-62
2020/12/22 08:01:29;;;;;;;1.23;0.60;;;;;;;;;;4994670;28;20034;-62
2020/12/22 08:03:55;;;;;;;4.45;2.75;;;;;;;;;;4993393;28;20058;-61
2020/12/22 08:06:20;;;;;;;4.07;2.20;;;;;;;;;;4993827;28;20081;-61
2020/12/22 08:08:57;;;;;;;4.20;2.75;;;;;;;;;;4995307;28;20046;-61
2020/12/22 08:11:22;;;;;;;2.20;0.95;;;;;;;;;;4994109;28;20494;-62
2020/12/22 08:13:49;;;;;;;2.05;0.80;;;;;;;;;;4993857;28;20046;-61
2020/12/22 08:16:15;;;;;;;1.33;0.70;;;;;;;;;;4992844;28;20538;-62
2020/12/22 08:18:41;;;;;;;2.13;0.70;;;;;;;;;;4992335;28;20468;-61
2020/12/22 08:21:10;;;;;;;1.35;0.80;;;;;;;;;;4994192;28;20038;-61
2020/12/22 08:23:37;;;;;;;3.60;0.73;;;;;;;;;;4992180;28;20238;-61
2020/12/22 08:26:04;;;;;;;0.77;0.57;;;;;;;;;;4992545;28;20116;-61
2020/12/22 08:28:29;;;;;;;2.60;0.90;;;;;;;;;;4989717;28;20038;-61
2020/12/22 08:30:55;;;;;;;1.05;0.63;;;;;;;;;;5007325;28;20688;-61
2020/12/22 08:33:22;;;;;;;1.23;0.70;;;;;;;;;;4991853;28;20084;-61
2020/12/22 08:35:48;;;;;;;1.17;0.70;;;;;;;;;;4992313;28;20113;-60
2020/12/22 08:38:27;;;;;;;2.45;0.95;;;;;;;;;;4994702;28;20124;-61
2020/12/22 08:40:54;;;;;;;0.95;0.60;;;;;;;;;;4990715;28;20105;-61
2020/12/22 08:43:24;;;;;;;0.98;0.65;;;;;;;;;;4990294;28;20676;-61
2020/12/22 08:45:51;;;;;;;1.05;0.52;;;;;;;;;;4994557;28;20457;-61
2020/12/22 08:48:16;;;;;;;1.48;0.80;;;;;;;;;;4991817;28;20061;-61
2020/12/22 08:50:49;;;;;;;1.00;0.60;;;;;;;;;;4992821;28;20026;-62
2020/12/22 08:53:15;;;;;;;1.33;0.80;;;;;;;;;;4995386;28;20053;-60
2020/12/22 08:55:41;;;;;;;1.75;0.82;;;;;;;;;;4991114;28;20038;-61
2020/12/22 08:58:06;;;;;;;1.83;0.60;;;;;;;;;;4992652;28;20034;-61
2020/12/22 09:00:32;;;;;;;1.05;0.68;;;;;;;;;;4994161;28;20095;-61
2020/12/22 09:03:00;;;;;;;1.23;0.70;;;;;;;;;;4985996;28;20081;-62
2020/12/22 09:05:28;;;;;;;0.85;0.60;;;;;;;;;;4992149;28;20034;-62
2020/12/22 09:08:07;;;;;;;0.63;0.50;;;;;;;;;;4989999;28;20038;-61
2020/12/22 09:10:32;;;;;;;1.25;0.60;;;;;;;;;;4989731;28;20026;-61
2020/12/22 09:12:58;;;;;;;1.13;0.60;;;;;;;;;;4991518;28;20372;-61
2020/12/22 09:15:23;;;;;;;0.73;0.52;;;;;;;;;;4994554;28;20042;-60
2020/12/22 09:17:48;;;;;;;3.25;1.15;;;;;;;;;;4988009;28;20042;-61
2020/12/22 09:20:18;;;;;;;3.38;1.23;;;;;;;;;;4994699;28;20036;-60
2020/12/22 09:22:45;;;;;;;0.65;0.50;;;;;;;;;;4988902;28;20035;-60
2020/12/22 09:25:10;;;;;;;1.33;0.80;;;;;;;;;;4994983;28;20065;-61
2020/12/22 09:27:39;;;;;;;3.08;1.20;;;;;;;;;;4994910;28;20034;-60
2020/12/22 09:30:07;;;;;;;2.47;0.70;;;;;;;;;;4996199;28;20022;-59
2020/12/22 09:32:33;;;;;;;1.55;0.90;;;;;;;;;;4994042;28;20469;-60
2020/12/22 09:34:58;;;;;;;1.20;0.63;;;;;;;;;;4995467;28;20042;-61
2020/12/22 09:37:25;;;;;;;1.20;0.60;;;;;;;;;;4995411;28;20037;-60
2020/12/22 09:39:51;;;;;;;2.47;1.00;;;;;;;;;;4993560;28;20091;-60
2020/12/22 09:42:18;;;;;;;1.05;0.68;;;;;;;;;;4996188;28;20050;-60
2020/12/22 09:44:43;;;;;;;1.73;0.50;;;;;;;;;;4993297;28;20039;-60
2020/12/22 09:47:09;;;;;;;0.80;0.55;;;;;;;;;;4996239;28;20054;-60
2020/12/22 09:49:34;;;;;;;1.17;0.63;;;;;;;;;;4994026;28;20099;-61
2020/12/22 09:52:00;;;;;;;0.82;0.52;;;;;;;;;;4993672;28;20030;-61
2020/12/22 09:54:25;;;;;;;1.00;0.63;;;;;;;;;;4995149;28;20045;-61
2020/12/22 09:56:51;;;;;;;0.98;0.68;;;;;;;;;;4991031;28;20049;-60
2020/12/22 09:59:17;;;;;;;1.15;0.60;;;;;;;;;;4996035;28;20042;-62
2020/12/22 10:01:43;;;;;;;1.85;0.60;;;;;;;;;;4996479;28;20049;-61
2020/12/22 10:04:08;;;;;;;2.00;1.02;;;;;;;;;;4993262;28;20540;-61
2020/12/22 10:06:33;;;;;;;1.75;0.80;;;;;;;;;;4997598;28;20044;-60
2020/12/22 10:08:59;;;;;;;1.48;0.75;;;;;;;;;;4998039;28;20478;-61
2020/12/22 10:11:25;;;;;;;2.42;0.77;;;;;;;;;;4999480;28;20034;-61
2020/12/22 10:13:51;;;;;;;0.70;0.50;;;;;;;;;;4999006;28;20311;-61
2020/12/22 10:16:18;;;;;;;2.58;1.00;;;;;;;;;;4998539;28;20117;-61
2020/12/22 10:18:44;;;;;;;0.88;0.55;;;;;;;;;;4997210;28;20030;-61
2020/12/22 10:21:14;;;;;;;1.38;0.70;;;;;;;;;;4997407;28;20490;-61
2020/12/22 10:23:41;;;;;;;1.23;0.63;;;;;;;;;;4995557;28;20378;-62
2020/12/22 10:26:09;;;;;;;2.83;0.60;;;;;;;;;;4996878;28;20456;-61
2020/12/22 10:28:36;;;;;;;2.03;0.73;;;;;;;;;;4995645;28;20060;-61
2020/12/22 10:31:02;;;;;;;0.57;0.50;;;;;;;;;;4998760;28;20039;-62
2020/12/22 10:33:28;;;;;;;1.88;0.95;;;;;;;;;;4996399;28;20523;-63
2020/12/22 10:35:53;;;;;;;1.02;0.60;;;;;;;;;;4997634;28;20030;-59
2020/12/22 10:38:20;;;;;;;1.30;0.70;;;;;;;;;;4999906;28;20037;-59
2020/12/22 10:40:45;;;;;;;1.48;0.70;;;;;;;;;;4996421;28;20620;-60
2020/12/22 10:43:11;;;;;;;1.00;0.60;;;;;;;;;;4999637;28;20113;-60
2020/12/22 10:45:37;;;;;;;2.13;0.60;;;;;;;;;;4996768;28;20483;-60
2020/12/22 10:48:04;;;;;;;0.95;0.60;;;;;;;;;;4998613;28;20030;-60
2020/12/22 10:50:29;;;;;;;1.30;0.73;;;;;;;;;;4998349;28;20536;-60
2020/12/22 10:52:55;;;;;;;1.20;0.60;;;;;;;;;;4996854;28;20109;-60
2020/12/22 10:55:21;;;;;;;1.10;0.68;;;;;;;;;;4997460;28;20049;-60
2020/12/22 10:57:47;;;;;;;1.27;0.60;;;;;;;;;;4996816;28;20030;-60
2020/12/22 11:00:16;;;;;;;3.75;1.30;;;;;;;;;;4999138;28;20037;-60
2020/12/22 11:02:42;;;;;;;1.60;0.70;;;;;;;;;;4996300;28;20053;-60
2020/12/22 11:05:07;;;;;;;2.45;0.90;;;;;;;;;;4995805;28;20051;-61
2020/12/22 11:10:05;;;;;;;1.85;0.90;;;;;;;;;;4998082;28;20077;-60
2020/12/22 11:12:30;;;;;;;1.73;0.88;;;;;;;;;;4996493;28;20037;-60
2020/12/22 11:14:55;;;;;;;1.25;0.60;;;;;;;;;;4996348;28;20037;-59
2020/12/22 11:17:21;;;;;;;1.35;0.65;;;;;;;;;;4996450;28;20061;-60
2020/12/22 11:19:46;;;;;;;1.45;0.70;;;;;;;;;;4997543;28;20027;-61
2020/12/22 11:22:11;;;;;;;1.02;0.68;;;;;;;;;;4997130;28;20060;-61
2020/12/22 11:24:37;;;;;;;1.42;0.52;;;;;;;;;;4987757;28;20039;-60
2020/12/22 11:27:02;;;;;;;1.25;0.70;;;;;;;;;;4996009;28;20054;-59
2020/12/22 11:29:27;;;;;;;0.88;0.60;;;;;;;;;;4997295;28;20041;-60
2020/12/22 11:31:53;;;;;;;1.20;0.50;;;;;;;;;;4995871;28;20065;-60
2020/12/22 11:34:18;;;;;;;2.58;0.90;;;;;;;;;;5000231;28;21011;-60
2020/12/22 11:36:54;;;;;;;1.02;0.63;;;;;;;;;;4995882;28;20600;-60
2020/12/22 11:39:23;;;;;;;1.27;0.70;;;;;;;;;;4998572;28;20038;-59
2020/12/22 11:41:48;;;;;;;1.95;0.65;;;;;;;;;;4996688;28;20481;-59
2020/12/22 11:44:14;;;;;;;1.10;0.70;;;;;;;;;;4998876;28;20077;-60
2020/12/22 11:46:46;;;;;;;1.88;0.80;;;;;;;;;;4996042;28;20026;-59
2020/12/22 11:49:12;;;;;;;2.25;0.82;;;;;;;;;;4997129;28;20042;-60
2020/12/22 11:51:38;;;;;;;1.65;0.68;;;;;;;;;;4997342;28;20505;-60
2020/12/22 11:54:04;;;;;;;0.85;0.55;;;;;;;;;;4995076;28;20030;-60
2020/12/22 11:56:29;;;;;;;1.20;0.73;;;;;;;;;;4997250;28;20121;-59
2020/12/22 11:58:56;;;;;;;0.85;0.60;;;;;;;;;;4996261;28;20450;-61
2020/12/22 12:01:28;;;;;;;1.27;0.82;;;;;;;;;;4991763;28;20029;-61
2020/12/22 12:03:54;;;;;;;1.55;0.80;;;;;;;;;;4992485;28;20042;-61
2020/12/22 12:06:20;;;;;;;2.13;0.85;;;;;;;;;;4997438;28;20038;-61
2020/12/22 12:08:45;;;;;;;1.42;0.70;;;;;;;;;;4996282;28;20346;-61
2020/12/22 12:11:11;;;;;;;1.25;0.73;;;;;;;;;;4996782;28;20042;-61
2020/12/22 12:13:37;;;;;;;1.67;0.88;;;;;;;;;;4995391;28;20042;-61
2020/12/22 12:16:03;;;;;;;1.52;0.77;;;;;;;;;;4993731;28;20076;-62
2020/12/22 12:18:29;;;;;;;1.08;0.57;;;;;;;;;;4996159;28;20034;-60
2020/12/22 12:20:54;;;;;;;2.05;0.90;;;;;;;;;;4996324;28;20400;-61
2020/12/22 12:23:20;;;;;;;1.05;0.60;;;;;;;;;;4998791;28;20022;-61
2020/12/22 12:25:45;;;;;;;1.75;0.95;;;;;;;;;;4994561;28;20037;-61
2020/12/22 12:28:10;;;;;;;1.10;0.68;;;;;;;;;;4995607;28;20049;-61
2020/12/22 12:30:36;;;;;;;1.52;0.73;;;;;;;;;;4995134;28;20034;-61
2020/12/22 12:33:01;;;;;;;1.50;0.90;;;;;;;;;;4995733;28;20034;-60
2020/12/22 12:35:26;;;;;;;0.88;0.60;;;;;;;;;;4996208;28;20033;-61
2020/12/22 12:37:52;;;;;;;1.48;0.90;;;;;;;;;;4995481;28;20045;-61
2020/12/22 12:40:18;;;;;;;1.48;0.60;;;;;;;;;;4995547;28;20049;-61
2020/12/22 12:42:43;;;;;;;2.47;0.90;;;;;;;;;;4993796;28;20168;-61
2020/12/22 12:45:09;;;;;;;1.77;0.75;;;;;;;;;;4995902;28;20038;-61
2020/12/22 12:47:34;;;;;;;2.15;1.05;;;;;;;;;;4994141;28;20038;-61
2020/12/22 12:49:59;;;;;;;0.90;0.70;;;;;;;;;;4994036;28;20551;-61
2020/12/22 12:52:25;;;;;;;1.73;0.70;;;;;;;;;;4995539;28;20038;-61
2020/12/22 12:54:51;;;;;;;1.42;0.90;;;;;;;;;;4995091;28;20041;-60
2020/12/22 12:57:17;;;;;;;1.40;0.80;;;;;;;;;;4997374;28;20373;-61
2020/12/22 12:59:42;;;;;;;1.92;0.98;;;;;;;;;;4994417;28;20109;-59
2020/12/22 13:02:08;;;;;;;1.13;0.80;;;;;;;;;;4994909;28;20086;-59
2020/12/22 13:04:34;;;;;;;1.17;0.73;;;;;;;;;;4994431;28;20423;-60
2020/12/22 13:07:00;;;;;;;1.00;0.60;;;;;;;;;;4994682;28;20022;-60
2020/12/22 13:09:25;;;;;;;1.10;0.70;;;;;;;;;;4995866;28;20457;-61
2020/12/22 13:11:51;;;;;;;1.13;0.80;;;;;;;;;;4994561;28;20500;-59
2020/12/22 13:14:16;;;;;;;1.20;0.77;;;;;;;;;;4996884;28;20049;-59
2020/12/22 13:16:41;;;;;;;1.98;0.77;;;;;;;;;;4992522;28;20045;-59
2020/12/22 13:19:07;;;;;;;1.17;0.75;;;;;;;;;;4995872;28;20453;-61
2020/12/22 13:21:33;;;;;;;0.65;0.57;;;;;;;;;;4995033;28;20519;-59
2020/12/22 13:23:59;;;;;;;2.03;1.00;;;;;;;;;;4993259;28;20125;-59
2020/12/22 13:26:24;;;;;;;2.22;0.80;;;;;;;;;;4994941;28;20109;-59
2020/12/22 13:28:49;;;;;;;1.23;0.80;;;;;;;;;;4993158;28;20170;-61
2020/12/22 13:31:15;;;;;;;1.63;0.70;;;;;;;;;;4994440;28;20048;-59
2020/12/22 13:33:40;;;;;;;1.17;0.65;;;;;;;;;;4993971;28;20038;-60
2020/12/22 13:36:05;;;;;;;1.63;0.93;;;;;;;;;;4994125;28;20034;-59
2020/12/22 13:38:31;;;;;;;1.30;0.70;;;;;;;;;;4990037;28;20037;-63
2020/12/22 13:40:56;;;;;;;2.63;0.80;;;;;;;;;;4997480;28;20034;-63
2020/12/22 13:43:22;;;;;;;2.97;1.55;;;;;;;;;;5000333;28;20045;-62
2020/12/22 13:45:47;;;;;;;2.30;0.80;;;;;;;;;;4999141;28;20038;-63
2020/12/22 13:48:13;;;;;;;0.90;0.70;;;;;;;;;;5001498;28;20603;-61
2020/12/22 13:50:38;;;;;;;1.65;0.80;;;;;;;;;;4998253;28;20061;-62
2020/12/22 13:53:04;;;;;;;1.42;0.52;;;;;;;;;;4995687;28;20665;-59
2020/12/22 13:55:29;;;;;;;1.70;0.90;;;;;;;;;;4999905;28;20041;-62
2020/12/22 13:57:55;;;;;;;1.88;0.90;;;;;;;;;;4996747;28;20029;-61
2020/12/22 14:00:21;;;;;;;1.60;0.82;;;;;;;;;;4990056;28;20284;-61
2020/12/22 14:02:47;;;;;;;3.75;2.25;;;;;;;;;;4996702;28;20369;-61
2020/12/22 14:05:12;;;;;;;1.35;0.85;;;;;;;;;;5001360;28;20042;-61
2020/12/22 14:07:37;;;;;;;1.73;0.70;;;;;;;;;;4998627;28;20490;-59
2020/12/22 14:10:03;;;;;;;2.17;0.98;;;;;;;;;;4999029;28;20037;-59
2020/12/22 14:12:28;;;;;;;2.60;0.70;;;;;;;;;;4997915;28;20541;-59
2020/12/22 14:14:54;;;;;;;1.77;0.80;;;;;;;;;;4996645;28;20122;-59
2020/12/22 14:17:19;;;;;;;1.55;0.70;;;;;;;;;;4999254;28;20037;-61
2020/12/22 14:19:44;;;;;;;1.33;0.60;;;;;;;;;;4997775;28;20026;-61
2020/12/22 14:22:10;;;;;;;1.20;0.60;;;;;;;;;;4998339;28;20038;-65
2020/12/22 14:24:35;;;;;;;1.67;0.70;;;;;;;;;;4996938;28;20077;-61
2020/12/22 14:27:01;;;;;;;3.42;1.05;;;;;;;;;;4995039;28;20354;-65
2020/12/22 14:29:26;;;;;;;1.67;0.85;;;;;;;;;;4996116;28;20057;-62
2020/12/22 14:31:54;;;;;;;2.35;1.08;;;;;;;;;;4989993;28;20034;-65
2020/12/22 14:34:19;;;;;;;1.65;0.85;;;;;;;;;;4994973;28;20489;-59
2020/12/22 14:36:45;;;;;;;8.40;0.93;;;;;;;;;;4996955;28;20048;-59
2020/12/22 14:39:11;;;;;;;1.50;0.90;;;;;;;;;;4998561;28;20454;-60
2020/12/22 14:41:36;;;;;;;1.98;0.90;;;;;;;;;;4996161;28;20038;-64